sensor_id;sensor_type;location;lat;lon;timestamp;P1;durP1;ratioP1;P2;durP2;ratioP2
21448;SDS011;10885;52.830;13.788;2023-03-11T05:41:44;4.75;;;3.42;;
21448;SDS011;10885;52.830;13.788;2023-03-11T05:47:05;5.07;;;3.38;;
21448;SDS011;10885;52.830;13.788;2023-03-11T05:52:27;4.40;;;3.40;;
21448;SDS011;10885;52.830;13.788;2023-03-11T05:57:50;6.03;;;3.78;;
21448;SDS011;10885;52.830;13.788;2023-03-11T06:03:12;4.97;;;3.72;;
21448;SDS011;10885;52.830;13.788;2023-03-11T06:08:33;5.57;;;3.42;;
21448;SDS011;10885;52.830;13.788;2023-03-11T06:13:56;6.03;;;4.28;;
21448;SDS011;10885;52.830;13.788;2023-03-11T06:19:20;6.50;;;4.50;;
21448;SDS011;10885;52.830;13.788;2023-03-11T06:24:45;6.93;;;4.35;;
21448;SDS011;10885;52.830;13.788;2023-03-11T06:30:06;6.65;;;4.25;;
21448;SDS011;10885;52.830;13.788;2023-03-11T06:35:34;7.47;;;4.93;;
21448;SDS011;10885;52.830;13.788;2023-03-11T06:41:02;8.18;;;5.47;;
21448;SDS011;10885;52.830;13.788;2023-03-11T06:46:25;9.00;;;5.07;;
21448;SDS011;10885;52.830;13.788;2023-03-11T06:51:47;7.57;;;4.15;;
21448;SDS011;10885;52.830;13.788;2023-03-11T06:57:09;8.10;;;4.55;;
21448;SDS011;10885;52.830;13.788;2023-03-11T07:02:32;10.82;;;5.00;;
21448;SDS011;10885;52.830;13.788;2023-03-11T07:07:53;7.07;;;5.32;;
21448;SDS011;10885;52.830;13.788;2023-03-11T07:13:16;9.80;;;4.60;;
21448;SDS011;10885;52.830;13.788;2023-03-11T07:18:38;4.45;;;3.38;;
21448;SDS011;10885;52.830;13.788;2023-03-11T07:23:59;25.50;;;4.32;;
21448;SDS011;10885;52.830;13.788;2023-03-11T07:29:21;4.78;;;3.33;;
21448;SDS011;10885;52.830;13.788;2023-03-11T07:34:42;6.45;;;3.83;;
21448;SDS011;10885;52.830;13.788;2023-03-11T07:40:03;7.10;;;3.72;;
21448;SDS011;10885;52.830;13.788;2023-03-11T07:45:24;6.95;;;4.25;;
21448;SDS011;10885;52.830;13.788;2023-03-11T07:50:45;7.38;;;4.30;;
21448;SDS011;10885;52.830;13.788;2023-03-11T07:56:07;7.60;;;3.92;;
21448;SDS011;10885;52.830;13.788;2023-03-11T08:01:30;5.40;;;3.70;;
21448;SDS011;10885;52.830;13.788;2023-03-11T08:06:56;4.47;;;3.35;;
21448;SDS011;10885;52.830;13.788;2023-03-11T08:12:17;6.30;;;3.28;;
21448;SDS011;10885;52.830;13.788;2023-03-11T08:17:37;6.32;;;3.10;;
21448;SDS011;10885;52.830;13.788;2023-03-11T08:28:19;3.13;;;2.60;;
21448;SDS011;10885;52.830;13.788;2023-03-11T08:33:41;4.00;;;2.72;;
21448;SDS011;10885;52.830;13.788;2023-03-11T08:39:03;5.32;;;2.47;;
21448;SDS011;10885;52.830;13.788;2023-03-11T08:44:24;2.97;;;2.60;;
21448;SDS011;10885;52.830;13.788;2023-03-11T08:49:44;5.40;;;2.78;;
21448;SDS011;10885;52.830;13.788;2023-03-11T08:55:05;2.55;;;2.20;;
21448;SDS011;10885;52.830;13.788;2023-03-11T09:00:28;3.45;;;2.33;;
21448;SDS011;10885;52.830;13.788;2023-03-11T09:05:55;4.13;;;2.20;;
21448;SDS011;10885;52.830;13.788;2023-03-11T09:11:17;2.67;;;2.25;;
21448;SDS011;10885;52.830;13.788;2023-03-11T09:16:39;3.58;;;2.17;;
21448;SDS011;10885;52.830;13.788;2023-03-11T09:22:00;4.68;;;2.45;;
21448;SDS011;10885;52.830;13.788;2023-03-11T09:27:22;3.17;;;2.30;;
21448;SDS011;10885;52.830;13.788;2023-03-11T09:32:43;3.03;;;2.10;;
21448;SDS011;10885;52.830;13.788;2023-03-11T09:38:04;3.72;;;2.47;;
21448;SDS011;10885;52.830;13.788;2023-03-11T09:49:33;4.32;;;2.47;;
21448;SDS011;10885;52.830;13.788;2023-03-11T09:55:06;3.40;;;2.75;;
21448;SDS011;10885;52.830;13.788;2023-03-11T10:00:41;3.47;;;2.17;;
21448;SDS011;10885;52.830;13.788;2023-03-11T10:28:09;4.63;;;2.03;;
21448;SDS011;10885;52.830;13.788;2023-03-11T10:33:42;2.80;;;1.65;;
21448;SDS011;10885;52.830;13.788;2023-03-11T10:39:23;3.35;;;2.08;;
21448;SDS011;10885;52.830;13.788;2023-03-11T10:44:46;3.63;;;2.17;;
21448;SDS011;10885;52.830;13.788;2023-03-11T10:50:16;3.75;;;2.25;;
21448;SDS011;10885;52.830;13.788;2023-03-11T10:55:52;4.53;;;1.90;;
21448;SDS011;10885;52.830;13.788;2023-03-11T11:01:15;3.47;;;2.40;;
21448;SDS011;10885;52.830;13.788;2023-03-11T11:06:38;3.08;;;2.17;;
21448;SDS011;10885;52.830;13.788;2023-03-11T11:17:24;5.13;;;2.50;;
21448;SDS011;10885;52.830;13.788;2023-03-11T11:22:55;3.40;;;2.13;;
21448;SDS011;10885;52.830;13.788;2023-03-11T11:28:23;4.82;;;2.03;;
21448;SDS011;10885;52.830;13.788;2023-03-11T11:33:52;2.38;;;2.03;;
21448;SDS011;10885;52.830;13.788;2023-03-11T11:39:15;5.07;;;2.20;;
21448;SDS011;10885;52.830;13.788;2023-03-11T11:44:39;4.55;;;3.05;;
21448;SDS011;10885;52.830;13.788;2023-03-11T11:50:03;3.95;;;1.80;;
21448;SDS011;10885;52.830;13.788;2023-03-11T11:55:27;2.40;;;1.67;;
21448;SDS011;10885;52.830;13.788;2023-03-11T12:01:12;2.15;;;1.90;;
21448;SDS011;10885;52.830;13.788;2023-03-11T12:18:14;2.17;;;1.60;;
21448;SDS011;10885;52.830;13.788;2023-03-11T12:23:56;3.10;;;2.17;;
21448;SDS011;10885;52.830;13.788;2023-03-11T12:29:41;2.97;;;1.90;;
21448;SDS011;10885;52.830;13.788;2023-03-11T12:35:21;3.72;;;1.98;;
21448;SDS011;10885;52.830;13.788;2023-03-11T12:40:56;3.63;;;2.58;;
21448;SDS011;10885;52.830;13.788;2023-03-11T12:46:58;5.60;;;3.13;;
21448;SDS011;10885;52.830;13.788;2023-03-11T12:52:24;4.38;;;3.20;;
21448;SDS011;10885;52.830;13.788;2023-03-11T12:57:50;6.28;;;3.20;;
21448;SDS011;10885;52.830;13.788;2023-03-11T13:09:10;5.55;;;3.20;;
21448;SDS011;10885;52.830;13.788;2023-03-11T13:14:34;5.40;;;4.32;;
21448;SDS011;10885;52.830;13.788;2023-03-11T13:19:55;7.63;;;4.60;;
21448;SDS011;10885;52.830;13.788;2023-03-11T13:25:23;6.13;;;4.22;;
21448;SDS011;10885;52.830;13.788;2023-03-11T13:42:20;8.25;;;5.82;;
21448;SDS011;10885;52.830;13.788;2023-03-11T13:47:46;8.98;;;5.50;;
21448;SDS011;10885;52.830;13.788;2023-03-11T13:53:13;8.68;;;5.68;;
21448;SDS011;10885;52.830;13.788;2023-03-11T13:58:39;10.38;;;7.10;;
21448;SDS011;10885;52.830;13.788;2023-03-11T14:04:00;10.07;;;5.80;;
21448;SDS011;10885;52.830;13.788;2023-03-11T14:14:46;8.90;;;5.30;;
21448;SDS011;10885;52.830;13.788;2023-03-11T14:20:15;7.68;;;5.00;;
21448;SDS011;10885;52.830;13.788;2023-03-11T14:25:39;7.65;;;5.82;;
21448;SDS011;10885;52.830;13.788;2023-03-11T14:31:01;7.50;;;4.85;;
21448;SDS011;10885;52.830;13.788;2023-03-11T14:36:22;7.22;;;4.90;;
21448;SDS011;10885;52.830;13.788;2023-03-11T14:41:43;7.60;;;4.65;;
21448;SDS011;10885;52.830;13.788;2023-03-11T14:52:40;4.85;;;3.85;;
21448;SDS011;10885;52.830;13.788;2023-03-11T14:58:08;6.70;;;4.38;;
21448;SDS011;10885;52.830;13.788;2023-03-11T15:03:34;6.88;;;5.15;;
21448;SDS011;10885;52.830;13.788;2023-03-11T15:09:28;5.90;;;4.22;;
21448;SDS011;10885;52.830;13.788;2023-03-11T15:14:50;7.45;;;5.10;;
21448;SDS011;10885;52.830;13.788;2023-03-11T15:20:24;7.90;;;4.70;;
21448;SDS011;10885;52.830;13.788;2023-03-11T15:25:49;7.68;;;4.75;;
21448;SDS011;10885;52.830;13.788;2023-03-11T15:36:37;7.03;;;4.30;;
21448;SDS011;10885;52.830;13.788;2023-03-11T15:47:25;4.88;;;3.90;;
21448;SDS011;10885;52.830;13.788;2023-03-11T15:58:07;5.03;;;3.80;;
21448;SDS011;10885;52.830;13.788;2023-03-11T16:03:31;7.10;;;4.03;;
21448;SDS011;10885;52.830;13.788;2023-03-11T16:08:52;5.53;;;3.58;;
21448;SDS011;10885;52.830;13.788;2023-03-11T16:14:16;6.32;;;3.75;;
21448;SDS011;10885;52.830;13.788;2023-03-11T16:19:40;5.30;;;3.80;;
21448;SDS011;10885;52.830;13.788;2023-03-11T16:25:17;9.93;;;4.60;;
21448;SDS011;10885;52.830;13.788;2023-03-11T16:30:49;6.20;;;4.15;;
21448;SDS011;10885;52.830;13.788;2023-03-11T16:36:11;5.20;;;3.53;;
21448;SDS011;10885;52.830;13.788;2023-03-11T16:41:39;6.38;;;3.88;;
21448;SDS011;10885;52.830;13.788;2023-03-11T16:47:01;5.82;;;3.65;;
21448;SDS011;10885;52.830;13.788;2023-03-11T16:52:22;6.32;;;3.63;;
21448;SDS011;10885;52.830;13.788;2023-03-11T16:57:43;4.50;;;3.22;;
21448;SDS011;10885;52.830;13.788;2023-03-11T17:03:04;5.13;;;3.50;;
21448;SDS011;10885;52.830;13.788;2023-03-11T17:08:25;4.05;;;3.15;;
21448;SDS011;10885;52.830;13.788;2023-03-11T17:19:07;3.70;;;3.08;;
21448;SDS011;10885;52.830;13.788;2023-03-11T17:24:28;7.20;;;3.33;;
21448;SDS011;10885;52.830;13.788;2023-03-11T17:29:49;5.80;;;3.55;;
21448;SDS011;10885;52.830;13.788;2023-03-11T17:35:10;3.85;;;2.97;;
21448;SDS011;10885;52.830;13.788;2023-03-11T17:40:31;4.40;;;2.83;;
21448;SDS011;10885;52.830;13.788;2023-03-11T17:45:52;6.35;;;3.55;;
21448;SDS011;10885;52.830;13.788;2023-03-11T17:51:14;5.32;;;3.05;;
21448;SDS011;10885;52.830;13.788;2023-03-11T17:56:43;5.25;;;3.17;;
21448;SDS011;10885;52.830;13.788;2023-03-11T18:02:03;4.75;;;3.00;;
21448;SDS011;10885;52.830;13.788;2023-03-11T18:12:46;3.10;;;2.73;;
21448;SDS011;10885;52.830;13.788;2023-03-11T18:18:07;8.20;;;3.03;;
21448;SDS011;10885;52.830;13.788;2023-03-11T18:23:28;12.00;;;4.35;;
21448;SDS011;10885;52.830;13.788;2023-03-11T18:28:53;3.47;;;3.03;;
21448;SDS011;10885;52.830;13.788;2023-03-11T18:34:17;4.53;;;2.90;;
21448;SDS011;10885;52.830;13.788;2023-03-11T18:39:38;7.75;;;3.55;;
21448;SDS011;10885;52.830;13.788;2023-03-11T18:44:59;4.03;;;3.00;;
21448;SDS011;10885;52.830;13.788;2023-03-11T18:50:21;5.22;;;2.95;;
21448;SDS011;10885;52.830;13.788;2023-03-11T18:55:42;3.70;;;3.00;;
21448;SDS011;10885;52.830;13.788;2023-03-11T19:06:33;8.57;;;3.20;;
21448;SDS011;10885;52.830;13.788;2023-03-11T19:11:54;6.07;;;3.03;;
21448;SDS011;10885;52.830;13.788;2023-03-11T19:17:15;4.80;;;2.35;;
21448;SDS011;10885;52.830;13.788;2023-03-11T19:22:38;7.07;;;2.65;;
21448;SDS011;10885;52.830;13.788;2023-03-11T19:27:58;4.30;;;2.80;;
21448;SDS011;10885;52.830;13.788;2023-03-11T19:38:41;5.53;;;2.50;;
21448;SDS011;10885;52.830;13.788;2023-03-11T19:44:02;6.20;;;2.78;;
21448;SDS011;10885;52.830;13.788;2023-03-11T19:49:24;3.65;;;2.53;;
21448;SDS011;10885;52.830;13.788;2023-03-11T19:54:44;3.55;;;2.45;;
21448;SDS011;10885;52.830;13.788;2023-03-11T20:00:06;10.45;;;2.63;;
21448;SDS011;10885;52.830;13.788;2023-03-11T20:05:27;8.85;;;2.67;;
21448;SDS011;10885;52.830;13.788;2023-03-11T20:10:49;7.15;;;2.30;;
21448;SDS011;10885;52.830;13.788;2023-03-11T20:16:12;5.70;;;2.60;;
21448;SDS011;10885;52.830;13.788;2023-03-11T20:21:38;7.43;;;2.60;;
21448;SDS011;10885;52.830;13.788;2023-03-11T20:27:00;7.55;;;2.60;;
21448;SDS011;10885;52.830;13.788;2023-03-11T20:32:21;8.77;;;2.40;;
21448;SDS011;10885;52.830;13.788;2023-03-11T20:37:42;6.38;;;2.50;;
21448;SDS011;10885;52.830;13.788;2023-03-11T20:43:04;7.57;;;2.53;;
21448;SDS011;10885;52.830;13.788;2023-03-11T20:48:25;3.72;;;2.33;;
21448;SDS011;10885;52.830;13.788;2023-03-11T20:53:46;5.40;;;2.20;;
21448;SDS011;10885;52.830;13.788;2023-03-11T20:59:09;5.75;;;2.53;;
21448;SDS011;10885;52.830;13.788;2023-03-11T21:04:33;5.18;;;2.70;;
21448;SDS011;10885;52.830;13.788;2023-03-11T21:09:55;3.47;;;2.15;;
21448;SDS011;10885;52.830;13.788;2023-03-11T21:15:17;7.13;;;2.22;;
21448;SDS011;10885;52.830;13.788;2023-03-11T21:20:39;8.57;;;3.25;;
21448;SDS011;10885;52.830;13.788;2023-03-11T21:31:23;12.85;;;2.60;;
21448;SDS011;10885;52.830;13.788;2023-03-11T21:36:47;4.70;;;2.05;;
21448;SDS011;10885;52.830;13.788;2023-03-11T21:42:08;12.85;;;2.40;;
21448;SDS011;10885;52.830;13.788;2023-03-11T21:47:29;5.47;;;2.40;;
21448;SDS011;10885;52.830;13.788;2023-03-11T21:52:50;5.78;;;2.30;;
21448;SDS011;10885;52.830;13.788;2023-03-11T21:58:11;5.70;;;2.50;;
21448;SDS011;10885;52.830;13.788;2023-03-11T22:03:33;5.28;;;2.17;;
21448;SDS011;10885;52.830;13.788;2023-03-11T22:08:56;9.35;;;2.45;;
21448;SDS011;10885;52.830;13.788;2023-03-11T22:14:17;12.45;;;2.60;;
21448;SDS011;10885;52.830;13.788;2023-03-11T22:19:38;8.02;;;2.30;;
21448;SDS011;10885;52.830;13.788;2023-03-11T22:24:59;6.20;;;2.30;;
21448;SDS011;10885;52.830;13.788;2023-03-11T22:35:47;14.63;;;2.65;;
21448;SDS011;10885;52.830;13.788;2023-03-11T22:41:13;8.52;;;2.40;;
21448;SDS011;10885;52.830;13.788;2023-03-11T22:46:36;8.05;;;2.08;;
21448;SDS011;10885;52.830;13.788;2023-03-11T22:57:18;6.47;;;2.60;;
21448;SDS011;10885;52.830;13.788;2023-03-11T23:02:39;4.43;;;2.10;;
21448;SDS011;10885;52.830;13.788;2023-03-11T23:08:00;7.88;;;2.40;;
21448;SDS011;10885;52.830;13.788;2023-03-11T23:13:21;6.72;;;2.30;;
21448;SDS011;10885;52.830;13.788;2023-03-11T23:18:42;7.13;;;2.60;;
21448;SDS011;10885;52.830;13.788;2023-03-11T23:24:04;3.60;;;2.33;;
21448;SDS011;10885;52.830;13.788;2023-03-11T23:29:28;10.15;;;2.17;;
21448;SDS011;10885;52.830;13.788;2023-03-11T23:34:48;5.43;;;2.15;;
21448;SDS011;10885;52.830;13.788;2023-03-11T23:40:09;10.20;;;3.05;;
21448;SDS011;10885;52.830;13.788;2023-03-11T23:45:31;4.47;;;2.33;;
21448;SDS011;10885;52.830;13.788;2023-03-11T23:50:51;5.35;;;2.33;;
21448;SDS011;10885;52.830;13.788;2023-03-11T23:56:14;5.28;;;2.20;;
